sensor_id;sensor_type;location;lat;lon;timestamp;noise_LAeq;noise_LA_min;noise_LA_max;noise_LA01;noise_LA95
72160;Laerm;60045;51.792;10.938;2024-01-30T00:01:15;38.28;36.30;44.86;;
72160;Laerm;60045;51.792;10.938;2024-01-30T00:03:40;38.85;36.38;47.73;;
72160;Laerm;60045;51.792;10.938;2024-01-30T00:06:06;37.04;34.87;41.56;;
72160;Laerm;60045;51.792;10.938;2024-01-30T00:08:33;36.10;33.70;39.54;;
72160;Laerm;60045;51.792;10.938;2024-01-30T00:10:58;35.79;34.19;38.96;;
72160;Laerm;60045;51.792;10.938;2024-01-30T00:13:24;34.64;32.94;38.92;;
72160;Laerm;60045;51.792;10.938;2024-01-30T00:15:50;35.24;32.57;42.32;;
72160;Laerm;60045;51.792;10.938;2024-01-30T00:18:15;35.02;32.24;45.37;;
72160;Laerm;60045;51.792;10.938;2024-01-30T00:20:41;52.84;32.76;71.02;;
72160;Laerm;60045;51.792;10.938;2024-01-30T00:23:08;34.37;32.46;39.98;;
72160;Laerm;60045;51.792;10.938;2024-01-30T00:25:33;33.12;31.81;37.92;;
72160;Laerm;60045;51.792;10.938;2024-01-30T00:27:59;32.99;31.59;34.87;;
72160;Laerm;60045;51.792;10.938;2024-01-30T00:30:25;33.04;31.01;42.74;;
72160;Laerm;60045;51.792;10.938;2024-01-30T00:32:51;32.15;31.04;34.22;;
72160;Laerm;60045;51.792;10.938;2024-01-30T00:35:16;32.03;30.65;34.46;;
72160;Laerm;60045;51.792;10.938;2024-01-30T00:37:42;31.94;30.69;35.68;;
72160;Laerm;60045;51.792;10.938;2024-01-30T00:40:08;59.59;31.11;77.63;;
72160;Laerm;60045;51.792;10.938;2024-01-30T00:42:40;55.20;31.78;74.10;;
72160;Laerm;60045;51.792;10.938;2024-01-30T00:45:06;34.82;33.15;37.56;;
72160;Laerm;60045;51.792;10.938;2024-01-30T00:47:31;36.78;33.37;46.13;;
72160;Laerm;60045;51.792;10.938;2024-01-30T00:49:58;36.05;33.70;48.29;;
72160;Laerm;60045;51.792;10.938;2024-01-30T00:52:23;36.54;33.43;52.84;;
72160;Laerm;60045;51.792;10.938;2024-01-30T00:54:49;37.37;34.06;46.51;;
72160;Laerm;60045;51.792;10.938;2024-01-30T00:57:15;36.20;34.47;38.92;;
72160;Laerm;60045;51.792;10.938;2024-01-30T00:59:40;36.19;34.12;39.81;;
72160;Laerm;60045;51.792;10.938;2024-01-30T01:02:06;52.08;32.51;69.14;;
72160;Laerm;60045;51.792;10.938;2024-01-30T01:04:32;33.93;31.81;39.89;;
72160;Laerm;60045;51.792;10.938;2024-01-30T01:06:58;33.41;30.92;40.53;;
72160;Laerm;60045;51.792;10.938;2024-01-30T01:09:23;31.03;29.80;33.05;;
72160;Laerm;60045;51.792;10.938;2024-01-30T01:11:49;30.81;29.79;32.54;;
72160;Laerm;60045;51.792;10.938;2024-01-30T01:14:15;53.99;30.30;72.35;;
72160;Laerm;60045;51.792;10.938;2024-01-30T01:16:40;31.64;30.28;36.07;;
72160;Laerm;60045;51.792;10.938;2024-01-30T01:19:06;31.98;30.03;42.67;;
72160;Laerm;60045;51.792;10.938;2024-01-30T01:21:32;30.95;29.94;33.05;;
72160;Laerm;60045;51.792;10.938;2024-01-30T01:23:58;38.76;30.20;57.62;;
72160;Laerm;60045;51.792;10.938;2024-01-30T01:26:23;63.07;30.56;83.85;;
72160;Laerm;60045;51.792;10.938;2024-01-30T01:28:49;35.02;30.86;45.92;;
72160;Laerm;60045;51.792;10.938;2024-01-30T01:31:15;32.63;30.35;37.67;;
72160;Laerm;60045;51.792;10.938;2024-01-30T01:33:42;56.52;30.63;73.64;;
72160;Laerm;60045;51.792;10.938;2024-01-30T01:36:08;32.43;30.41;43.48;;
72160;Laerm;60045;51.792;10.938;2024-01-30T01:38:34;35.44;31.07;57.33;;
72160;Laerm;60045;51.792;10.938;2024-01-30T01:40:59;31.97;30.81;34.07;;
72160;Laerm;60045;51.792;10.938;2024-01-30T01:43:25;33.21;30.51;42.90;;
72160;Laerm;60045;51.792;10.938;2024-01-30T01:45:51;33.31;31.09;46.67;;
72160;Laerm;60045;51.792;10.938;2024-01-30T01:48:16;54.66;30.91;72.20;;
72160;Laerm;60045;51.792;10.938;2024-01-30T01:50:42;51.33;31.42;68.47;;
72160;Laerm;60045;51.792;10.938;2024-01-30T01:53:08;34.29;31.24;38.23;;
72160;Laerm;60045;51.792;10.938;2024-01-30T01:55:34;33.81;31.64;38.51;;
72160;Laerm;60045;51.792;10.938;2024-01-30T01:58:01;33.61;31.73;35.89;;
72160;Laerm;60045;51.792;10.938;2024-01-30T02:00:27;34.50;32.02;42.11;;
72160;Laerm;60045;51.792;10.938;2024-01-30T02:02:53;35.96;32.66;41.54;;
72160;Laerm;60045;51.792;10.938;2024-01-30T02:05:20;37.49;34.16;45.14;;
72160;Laerm;60045;51.792;10.938;2024-01-30T02:07:46;36.85;32.88;41.42;;
72160;Laerm;60045;51.792;10.938;2024-01-30T02:10:12;33.39;31.01;40.96;;
72160;Laerm;60045;51.792;10.938;2024-01-30T02:12:38;31.82;30.27;36.41;;
72160;Laerm;60045;51.792;10.938;2024-01-30T02:15:04;31.68;30.39;33.17;;
72160;Laerm;60045;51.792;10.938;2024-01-30T02:17:30;31.86;30.49;38.36;;
72160;Laerm;60045;51.792;10.938;2024-01-30T02:19:55;62.56;31.03;81.95;;
72160;Laerm;60045;51.792;10.938;2024-01-30T02:22:21;35.02;30.68;47.02;;
72160;Laerm;60045;51.792;10.938;2024-01-30T02:24:47;32.08;30.41;40.33;;
72160;Laerm;60045;51.792;10.938;2024-01-30T02:27:13;31.11;29.69;33.65;;
72160;Laerm;60045;51.792;10.938;2024-01-30T02:29:39;30.24;29.31;32.43;;
72160;Laerm;60045;51.792;10.938;2024-01-30T02:32:05;31.08;29.57;36.18;;
72160;Laerm;60045;51.792;10.938;2024-01-30T02:34:31;36.32;30.47;47.37;;
72160;Laerm;60045;51.792;10.938;2024-01-30T02:36:56;61.46;29.42;77.97;;
72160;Laerm;60045;51.792;10.938;2024-01-30T02:39:22;30.66;29.45;41.75;;
72160;Laerm;60045;51.792;10.938;2024-01-30T02:41:48;30.77;29.25;36.19;;
72160;Laerm;60045;51.792;10.938;2024-01-30T02:44:14;30.94;29.81;36.42;;
72160;Laerm;60045;51.792;10.938;2024-01-30T02:46:39;31.33;29.85;37.15;;
72160;Laerm;60045;51.792;10.938;2024-01-30T02:49:05;32.06;30.62;40.89;;
72160;Laerm;60045;51.792;10.938;2024-01-30T02:51:31;32.22;30.70;37.77;;
72160;Laerm;60045;51.792;10.938;2024-01-30T02:53:57;34.73;31.17;47.54;;
72160;Laerm;60045;51.792;10.938;2024-01-30T02:56:23;64.44;32.53;82.98;;
72160;Laerm;60045;51.792;10.938;2024-01-30T02:58:48;37.11;32.14;46.53;;
72160;Laerm;60045;51.792;10.938;2024-01-30T03:01:14;49.98;32.19;67.42;;
72160;Laerm;60045;51.792;10.938;2024-01-30T03:03:40;34.80;31.59;43.47;;
72160;Laerm;60045;51.792;10.938;2024-01-30T03:06:05;49.51;31.25;65.18;;
72160;Laerm;60045;51.792;10.938;2024-01-30T03:08:32;32.25;30.67;34.90;;
72160;Laerm;60045;51.792;10.938;2024-01-30T03:10:59;60.19;31.15;77.71;;
72160;Laerm;60045;51.792;10.938;2024-01-30T03:13:25;38.85;31.00;54.41;;
72160;Laerm;60045;51.792;10.938;2024-01-30T03:15:51;34.29;30.87;44.53;;
72160;Laerm;60045;51.792;10.938;2024-01-30T03:18:17;32.29;30.73;35.18;;
72160;Laerm;60045;51.792;10.938;2024-01-30T03:20:43;33.42;30.93;44.45;;
72160;Laerm;60045;51.792;10.938;2024-01-30T03:23:08;32.42;31.03;37.99;;
72160;Laerm;60045;51.792;10.938;2024-01-30T03:25:34;33.08;31.68;36.84;;
72160;Laerm;60045;51.792;10.938;2024-01-30T03:28:00;50.99;33.46;67.99;;
72160;Laerm;60045;51.792;10.938;2024-01-30T03:30:26;61.02;33.41;77.97;;
72160;Laerm;60045;51.792;10.938;2024-01-30T03:32:51;36.54;32.96;44.42;;
72160;Laerm;60045;51.792;10.938;2024-01-30T03:35:18;56.92;33.04;69.88;;
72160;Laerm;60045;51.792;10.938;2024-01-30T03:37:44;62.15;33.45;80.44;;
72160;Laerm;60045;51.792;10.938;2024-01-30T03:40:10;51.98;31.99;67.99;;
72160;Laerm;60045;51.792;10.938;2024-01-30T03:42:36;54.06;30.80;72.17;;
72160;Laerm;60045;51.792;10.938;2024-01-30T03:45:01;34.04;31.17;41.25;;
72160;Laerm;60045;51.792;10.938;2024-01-30T03:47:27;33.37;31.01;41.72;;
72160;Laerm;60045;51.792;10.938;2024-01-30T03:49:53;31.66;30.58;33.58;;
72160;Laerm;60045;51.792;10.938;2024-01-30T03:52:19;32.32;30.53;38.00;;
72160;Laerm;60045;51.792;10.938;2024-01-30T03:54:44;32.69;30.65;39.61;;
72160;Laerm;60045;51.792;10.938;2024-01-30T03:57:10;54.60;30.79;69.81;;
72160;Laerm;60045;51.792;10.938;2024-01-30T03:59:37;55.85;33.60;70.70;;
72160;Laerm;60045;51.792;10.938;2024-01-30T04:02:03;53.61;33.16;68.63;;
72160;Laerm;60045;51.792;10.938;2024-01-30T04:04:29;60.82;33.08;75.38;;
72160;Laerm;60045;51.792;10.938;2024-01-30T04:06:55;49.25;33.24;64.47;;
72160;Laerm;60045;51.792;10.938;2024-01-30T04:09:20;63.37;34.02;79.07;;
72160;Laerm;60045;51.792;10.938;2024-01-30T04:11:46;59.65;33.75;72.08;;
72160;Laerm;60045;51.792;10.938;2024-01-30T04:14:12;53.14;30.97;70.49;;
72160;Laerm;60045;51.792;10.938;2024-01-30T04:16:37;56.33;31.49;74.09;;
72160;Laerm;60045;51.792;10.938;2024-01-30T04:19:03;63.38;33.88;79.82;;
72160;Laerm;60045;51.792;10.938;2024-01-30T04:21:29;31.98;30.35;34.62;;
72160;Laerm;60045;51.792;10.938;2024-01-30T04:23:54;61.94;31.08;80.16;;
72160;Laerm;60045;51.792;10.938;2024-01-30T04:26:20;61.69;31.01;80.27;;
72160;Laerm;60045;51.792;10.938;2024-01-30T04:28:46;56.54;30.87;72.37;;
72160;Laerm;60045;51.792;10.938;2024-01-30T04:31:12;51.86;30.45;67.74;;
72160;Laerm;60045;51.792;10.938;2024-01-30T04:33:38;58.94;30.30;74.11;;
72160;Laerm;60045;51.792;10.938;2024-01-30T04:36:03;54.06;30.56;69.57;;
72160;Laerm;60045;51.792;10.938;2024-01-30T04:38:29;57.98;32.65;71.82;;
72160;Laerm;60045;51.792;10.938;2024-01-30T04:40:55;62.60;35.11;81.08;;
72160;Laerm;60045;51.792;10.938;2024-01-30T04:43:21;60.81;35.15;74.34;;
72160;Laerm;60045;51.792;10.938;2024-01-30T04:45:47;59.11;33.83;71.39;;
72160;Laerm;60045;51.792;10.938;2024-01-30T04:48:13;57.46;32.35;75.03;;
72160;Laerm;60045;51.792;10.938;2024-01-30T04:50:38;54.87;32.13;68.99;;
72160;Laerm;60045;51.792;10.938;2024-01-30T04:53:04;59.43;34.13;70.34;;
72160;Laerm;60045;51.792;10.938;2024-01-30T04:55:30;62.14;33.57;79.32;;
72160;Laerm;60045;51.792;10.938;2024-01-30T04:57:56;64.11;33.09;78.76;;
72160;Laerm;60045;51.792;10.938;2024-01-30T05:00:21;60.76;31.82;72.33;;
72160;Laerm;60045;51.792;10.938;2024-01-30T05:02:47;61.81;32.44;77.69;;
72160;Laerm;60045;51.792;10.938;2024-01-30T05:05:13;59.16;34.20;72.32;;
72160;Laerm;60045;51.792;10.938;2024-01-30T05:07:38;58.21;34.48;73.03;;
72160;Laerm;60045;51.792;10.938;2024-01-30T05:10:04;57.77;35.25;70.53;;
72160;Laerm;60045;51.792;10.938;2024-01-30T05:12:30;59.25;33.95;74.26;;
72160;Laerm;60045;51.792;10.938;2024-01-30T05:14:56;56.24;34.20;69.75;;
72160;Laerm;60045;51.792;10.938;2024-01-30T05:17:21;59.03;34.62;72.08;;
72160;Laerm;60045;51.792;10.938;2024-01-30T05:19:47;65.62;39.14;78.49;;
72160;Laerm;60045;51.792;10.938;2024-01-30T05:22:13;60.28;35.54;72.14;;
72160;Laerm;60045;51.792;10.938;2024-01-30T05:24:40;59.48;37.46;71.51;;
72160;Laerm;60045;51.792;10.938;2024-01-30T05:27:07;62.14;38.00;73.64;;
72160;Laerm;60045;51.792;10.938;2024-01-30T05:29:32;58.57;38.62;72.12;;
72160;Laerm;60045;51.792;10.938;2024-01-30T05:31:58;63.21;37.03;79.32;;
72160;Laerm;60045;51.792;10.938;2024-01-30T05:34:24;60.51;37.76;72.73;;
72160;Laerm;60045;51.792;10.938;2024-01-30T05:36:50;63.28;37.96;72.72;;
72160;Laerm;60045;51.792;10.938;2024-01-30T05:39:15;65.09;37.89;78.28;;
72160;Laerm;60045;51.792;10.938;2024-01-30T05:41:41;60.19;38.15;71.14;;
72160;Laerm;60045;51.792;10.938;2024-01-30T05:44:07;58.92;38.25;72.42;;
72160;Laerm;60045;51.792;10.938;2024-01-30T05:46:33;62.77;39.18;77.50;;
72160;Laerm;60045;51.792;10.938;2024-01-30T05:48:59;61.95;37.40;73.35;;
72160;Laerm;60045;51.792;10.938;2024-01-30T05:51:24;59.24;36.66;74.16;;
72160;Laerm;60045;51.792;10.938;2024-01-30T05:53:50;59.90;37.81;73.29;;
72160;Laerm;60045;51.792;10.938;2024-01-30T05:56:16;60.12;38.15;72.53;;
72160;Laerm;60045;51.792;10.938;2024-01-30T05:58:41;65.24;41.89;77.70;;
72160;Laerm;60045;51.792;10.938;2024-01-30T06:01:08;61.96;39.55;78.40;;
72160;Laerm;60045;51.792;10.938;2024-01-30T06:03:34;58.46;40.32;71.64;;
72160;Laerm;60045;51.792;10.938;2024-01-30T06:06:00;62.91;38.36;75.21;;
72160;Laerm;60045;51.792;10.938;2024-01-30T06:08:25;57.53;37.18;72.04;;
72160;Laerm;60045;51.792;10.938;2024-01-30T06:10:51;68.23;37.83;87.66;;
72160;Laerm;60045;51.792;10.938;2024-01-30T06:13:17;58.23;39.41;69.15;;
72160;Laerm;60045;51.792;10.938;2024-01-30T06:15:43;61.14;38.17;74.66;;
72160;Laerm;60045;51.792;10.938;2024-01-30T06:18:08;63.83;37.88;77.29;;
72160;Laerm;60045;51.792;10.938;2024-01-30T06:20:34;60.21;40.68;72.94;;
72160;Laerm;60045;51.792;10.938;2024-01-30T06:23:00;60.17;38.10;76.13;;
72160;Laerm;60045;51.792;10.938;2024-01-30T06:25:26;59.06;38.74;73.12;;
72160;Laerm;60045;51.792;10.938;2024-01-30T06:27:51;59.53;38.33;71.21;;
72160;Laerm;60045;51.792;10.938;2024-01-30T06:30:17;59.20;38.53;73.22;;
72160;Laerm;60045;51.792;10.938;2024-01-30T06:32:43;60.86;38.12;71.78;;
72160;Laerm;60045;51.792;10.938;2024-01-30T06:35:09;57.56;37.21;69.37;;
72160;Laerm;60045;51.792;10.938;2024-01-30T06:37:35;65.37;40.60;78.79;;
72160;Laerm;60045;51.792;10.938;2024-01-30T06:40:01;62.29;41.13;72.61;;
72160;Laerm;60045;51.792;10.938;2024-01-30T06:42:27;62.73;39.44;75.64;;
72160;Laerm;60045;51.792;10.938;2024-01-30T06:44:53;54.39;38.14;69.31;;
72160;Laerm;60045;51.792;10.938;2024-01-30T06:47:18;58.81;38.75;72.14;;
72160;Laerm;60045;51.792;10.938;2024-01-30T06:49:44;68.59;43.28;82.61;;
72160;Laerm;60045;51.792;10.938;2024-01-30T06:52:10;57.87;42.27;71.73;;
72160;Laerm;60045;51.792;10.938;2024-01-30T06:54:36;63.73;41.06;79.33;;
72160;Laerm;60045;51.792;10.938;2024-01-30T06:57:02;63.83;40.56;80.32;;
72160;Laerm;60045;51.792;10.938;2024-01-30T06:59:28;63.87;41.63;76.15;;
72160;Laerm;60045;51.792;10.938;2024-01-30T07:01:53;59.26;39.97;73.35;;
72160;Laerm;60045;51.792;10.938;2024-01-30T07:04:19;41.68;38.42;48.73;;
72160;Laerm;60045;51.792;10.938;2024-01-30T07:06:45;57.48;38.23;71.62;;
72160;Laerm;60045;51.792;10.938;2024-01-30T07:09:11;66.14;38.67;83.78;;
72160;Laerm;60045;51.792;10.938;2024-01-30T07:11:38;59.78;40.15;73.20;;
72160;Laerm;60045;51.792;10.938;2024-01-30T07:14:04;60.36;41.48;77.37;;
72160;Laerm;60045;51.792;10.938;2024-01-30T07:16:30;64.55;39.19;78.75;;
72160;Laerm;60045;51.792;10.938;2024-01-30T07:18:56;58.98;40.63;73.71;;
72160;Laerm;60045;51.792;10.938;2024-01-30T07:21:21;59.24;40.42;71.99;;
72160;Laerm;60045;51.792;10.938;2024-01-30T07:23:52;63.47;38.53;78.35;;
72160;Laerm;60045;51.792;10.938;2024-01-30T07:26:18;65.17;37.94;79.11;;
72160;Laerm;60045;51.792;10.938;2024-01-30T07:28:44;63.99;41.46;79.89;;
72160;Laerm;60045;51.792;10.938;2024-01-30T07:31:09;64.55;41.44;76.97;;
72160;Laerm;60045;51.792;10.938;2024-01-30T07:33:35;53.06;40.55;69.16;;
72160;Laerm;60045;51.792;10.938;2024-01-30T07:36:01;61.24;41.47;76.05;;
72160;Laerm;60045;51.792;10.938;2024-01-30T07:38:27;59.89;40.06;73.36;;
72160;Laerm;60045;51.792;10.938;2024-01-30T07:40:52;61.88;41.60;76.20;;
72160;Laerm;60045;51.792;10.938;2024-01-30T07:43:18;66.47;41.91;83.23;;
72160;Laerm;60045;51.792;10.938;2024-01-30T07:45:45;59.26;42.11;72.97;;
72160;Laerm;60045;51.792;10.938;2024-01-30T07:48:10;53.72;40.67;68.47;;
72160;Laerm;60045;51.792;10.938;2024-01-30T07:50:36;51.02;41.03;65.95;;
72160;Laerm;60045;51.792;10.938;2024-01-30T07:53:02;65.47;43.56;80.28;;
72160;Laerm;60045;51.792;10.938;2024-01-30T07:55:28;60.04;43.97;76.08;;
72160;Laerm;60045;51.792;10.938;2024-01-30T07:57:54;65.21;42.65;79.45;;
72160;Laerm;60045;51.792;10.938;2024-01-30T08:00:20;62.96;44.21;77.73;;
72160;Laerm;60045;51.792;10.938;2024-01-30T08:02:46;61.74;43.26;77.58;;
72160;Laerm;60045;51.792;10.938;2024-01-30T08:05:11;65.26;44.04;79.15;;
72160;Laerm;60045;51.792;10.938;2024-01-30T08:07:39;63.80;41.26;79.54;;
72160;Laerm;60045;51.792;10.938;2024-01-30T08:10:05;57.60;41.27;71.12;;
72160;Laerm;60045;51.792;10.938;2024-01-30T08:12:31;60.14;42.01;72.48;;
72160;Laerm;60045;51.792;10.938;2024-01-30T08:14:56;64.07;42.47;82.43;;
72160;Laerm;60045;51.792;10.938;2024-01-30T08:17:22;64.66;43.87;80.59;;
72160;Laerm;60045;51.792;10.938;2024-01-30T08:19:48;63.92;43.00;79.96;;
72160;Laerm;60045;51.792;10.938;2024-01-30T08:22:14;57.72;42.21;71.36;;
72160;Laerm;60045;51.792;10.938;2024-01-30T08:24:40;60.91;42.84;72.66;;
72160;Laerm;60045;51.792;10.938;2024-01-30T08:27:06;64.30;43.76;80.03;;
72160;Laerm;60045;51.792;10.938;2024-01-30T08:29:34;59.88;43.91;71.97;;
72160;Laerm;60045;51.792;10.938;2024-01-30T08:32:00;57.90;42.21;73.22;;
72160;Laerm;60045;51.792;10.938;2024-01-30T08:34:26;57.05;42.50;74.25;;
72160;Laerm;60045;51.792;10.938;2024-01-30T08:36:52;59.00;43.38;71.16;;
72160;Laerm;60045;51.792;10.938;2024-01-30T08:39:18;63.83;42.61;78.45;;
72160;Laerm;60045;51.792;10.938;2024-01-30T08:41:43;64.30;44.11;79.44;;
72160;Laerm;60045;51.792;10.938;2024-01-30T08:44:09;60.60;43.78;79.14;;
72160;Laerm;60045;51.792;10.938;2024-01-30T08:46:36;52.98;42.82;68.60;;
72160;Laerm;60045;51.792;10.938;2024-01-30T08:49:02;59.09;42.05;72.35;;
72160;Laerm;60045;51.792;10.938;2024-01-30T08:51:29;62.60;41.69;80.71;;
72160;Laerm;60045;51.792;10.938;2024-01-30T08:53:55;67.06;44.35;82.09;;
72160;Laerm;60045;51.792;10.938;2024-01-30T08:56:21;63.71;42.94;78.20;;
72160;Laerm;60045;51.792;10.938;2024-01-30T08:58:46;60.83;42.78;75.17;;
72160;Laerm;60045;51.792;10.938;2024-01-30T09:01:12;63.37;43.81;77.79;;
72160;Laerm;60045;51.792;10.938;2024-01-30T09:03:38;63.70;41.61;79.34;;
72160;Laerm;60045;51.792;10.938;2024-01-30T09:06:09;63.55;41.45;78.76;;
72160;Laerm;60045;51.792;10.938;2024-01-30T09:08:34;62.92;42.05;73.75;;
72160;Laerm;60045;51.792;10.938;2024-01-30T09:11:00;52.54;40.23;67.90;;
72160;Laerm;60045;51.792;10.938;2024-01-30T09:13:26;62.29;40.05;79.23;;
72160;Laerm;60045;51.792;10.938;2024-01-30T09:15:52;63.26;41.02;80.29;;
72160;Laerm;60045;51.792;10.938;2024-01-30T09:18:18;61.67;43.11;73.91;;
72160;Laerm;60045;51.792;10.938;2024-01-30T09:20:44;57.80;42.61;71.93;;
72160;Laerm;60045;51.792;10.938;2024-01-30T09:23:12;61.25;42.48;73.94;;
72160;Laerm;60045;51.792;10.938;2024-01-30T09:25:38;60.95;41.67;77.72;;
72160;Laerm;60045;51.792;10.938;2024-01-30T09:28:04;56.13;42.08;71.14;;
72160;Laerm;60045;51.792;10.938;2024-01-30T09:30:30;62.80;44.28;78.28;;
72160;Laerm;60045;51.792;10.938;2024-01-30T09:32:55;63.04;42.35;77.76;;
72160;Laerm;60045;51.792;10.938;2024-01-30T09:35:21;62.87;44.19;74.31;;
72160;Laerm;60045;51.792;10.938;2024-01-30T09:37:47;62.92;41.91;76.56;;
72160;Laerm;60045;51.792;10.938;2024-01-30T09:40:13;64.52;42.14;78.66;;
72160;Laerm;60045;51.792;10.938;2024-01-30T09:42:43;59.42;41.36;73.49;;
72160;Laerm;60045;51.792;10.938;2024-01-30T09:45:12;58.28;40.12;72.56;;
72160;Laerm;60045;51.792;10.938;2024-01-30T09:47:42;67.00;44.03;83.72;;
72160;Laerm;60045;51.792;10.938;2024-01-30T09:50:08;59.33;41.09;72.13;;
72160;Laerm;60045;51.792;10.938;2024-01-30T09:52:34;60.28;39.70;74.11;;
72160;Laerm;60045;51.792;10.938;2024-01-30T09:55:00;61.28;39.32;71.45;;
72160;Laerm;60045;51.792;10.938;2024-01-30T09:57:28;61.90;38.26;79.69;;
72160;Laerm;60045;51.792;10.938;2024-01-30T09:59:54;59.92;36.94;75.01;;
72160;Laerm;60045;51.792;10.938;2024-01-30T10:02:20;59.92;38.13;73.57;;
72160;Laerm;60045;51.792;10.938;2024-01-30T10:04:50;66.39;43.68;80.77;;
72160;Laerm;60045;51.792;10.938;2024-01-30T10:07:16;62.70;37.16;79.44;;
72160;Laerm;60045;51.792;10.938;2024-01-30T10:09:42;63.27;36.86;81.28;;
72160;Laerm;60045;51.792;10.938;2024-01-30T10:12:11;63.30;39.20;77.58;;
72160;Laerm;60045;51.792;10.938;2024-01-30T10:14:40;59.30;37.40;72.58;;
72160;Laerm;60045;51.792;10.938;2024-01-30T10:17:07;61.68;39.59;78.29;;
72160;Laerm;60045;51.792;10.938;2024-01-30T10:19:33;62.51;39.35;77.26;;
72160;Laerm;60045;51.792;10.938;2024-01-30T10:21:59;58.18;39.37;72.98;;
72160;Laerm;60045;51.792;10.938;2024-01-30T10:24:28;57.99;40.02;71.87;;
72160;Laerm;60045;51.792;10.938;2024-01-30T10:26:55;60.03;39.44;74.43;;
72160;Laerm;60045;51.792;10.938;2024-01-30T10:29:21;62.55;39.30;79.71;;
72160;Laerm;60045;51.792;10.938;2024-01-30T10:31:59;58.63;40.12;73.32;;
72160;Laerm;60045;51.792;10.938;2024-01-30T10:34:25;60.54;39.84;74.42;;
72160;Laerm;60045;51.792;10.938;2024-01-30T10:36:51;59.09;39.49;70.80;;
72160;Laerm;60045;51.792;10.938;2024-01-30T10:39:21;64.97;40.45;80.73;;
72160;Laerm;60045;51.792;10.938;2024-01-30T10:41:48;61.47;39.79;76.07;;
72160;Laerm;60045;51.792;10.938;2024-01-30T10:44:18;54.41;41.73;69.91;;
72160;Laerm;60045;51.792;10.938;2024-01-30T10:46:45;55.68;41.97;68.46;;
72160;Laerm;60045;51.792;10.938;2024-01-30T10:49:15;63.42;42.99;78.20;;
72160;Laerm;60045;51.792;10.938;2024-01-30T10:51:40;67.27;43.03;78.83;;
72160;Laerm;60045;51.792;10.938;2024-01-30T10:54:06;61.63;42.65;71.76;;
72160;Laerm;60045;51.792;10.938;2024-01-30T10:56:32;59.96;42.73;72.54;;
72160;Laerm;60045;51.792;10.938;2024-01-30T10:58:59;60.62;42.34;75.21;;
72160;Laerm;60045;51.792;10.938;2024-01-30T11:01:25;58.67;42.64;72.83;;
72160;Laerm;60045;51.792;10.938;2024-01-30T11:03:51;58.81;42.49;72.41;;
72160;Laerm;60045;51.792;10.938;2024-01-30T11:06:17;57.08;43.78;70.14;;
72160;Laerm;60045;51.792;10.938;2024-01-30T11:08:44;65.06;43.72;79.54;;
72160;Laerm;60045;51.792;10.938;2024-01-30T11:11:10;56.58;41.52;72.50;;
72160;Laerm;60045;51.792;10.938;2024-01-30T11:13:36;56.08;41.06;71.39;;
72160;Laerm;60045;51.792;10.938;2024-01-30T11:16:02;61.82;42.94;74.85;;
72160;Laerm;60045;51.792;10.938;2024-01-30T11:18:31;64.44;42.41;78.12;;
72160;Laerm;60045;51.792;10.938;2024-01-30T11:20:57;62.88;43.53;79.42;;
72160;Laerm;60045;51.792;10.938;2024-01-30T11:23:25;57.45;41.93;69.27;;
72160;Laerm;60045;51.792;10.938;2024-01-30T11:25:52;59.08;42.31;70.95;;
72160;Laerm;60045;51.792;10.938;2024-01-30T11:28:18;63.31;42.53;79.39;;
72160;Laerm;60045;51.792;10.938;2024-01-30T11:30:43;61.65;43.43;73.79;;
72160;Laerm;60045;51.792;10.938;2024-01-30T11:33:12;55.99;43.66;68.93;;
72160;Laerm;60045;51.792;10.938;2024-01-30T11:35:38;61.75;44.03;78.17;;
72160;Laerm;60045;51.792;10.938;2024-01-30T11:38:05;63.14;44.81;77.17;;
72160;Laerm;60045;51.792;10.938;2024-01-30T11:40:31;60.93;43.16;74.69;;
72160;Laerm;60045;51.792;10.938;2024-01-30T11:42:58;60.71;42.69;75.82;;
72160;Laerm;60045;51.792;10.938;2024-01-30T11:45:24;60.69;43.48;77.30;;
72160;Laerm;60045;51.792;10.938;2024-01-30T11:47:50;54.71;42.48;69.66;;
72160;Laerm;60045;51.792;10.938;2024-01-30T11:50:16;63.23;43.89;78.12;;
72160;Laerm;60045;51.792;10.938;2024-01-30T11:52:41;60.34;42.31;74.18;;
72160;Laerm;60045;51.792;10.938;2024-01-30T11:55:08;58.89;43.54;72.62;;
72160;Laerm;60045;51.792;10.938;2024-01-30T11:57:34;55.28;41.55;68.73;;
72160;Laerm;60045;51.792;10.938;2024-01-30T12:00:02;61.64;43.16;73.35;;
72160;Laerm;60045;51.792;10.938;2024-01-30T12:02:29;56.23;41.99;74.34;;
72160;Laerm;60045;51.792;10.938;2024-01-30T12:04:55;58.43;41.19;73.99;;
72160;Laerm;60045;51.792;10.938;2024-01-30T12:07:20;58.79;42.72;73.60;;
72160;Laerm;60045;51.792;10.938;2024-01-30T12:09:53;64.38;43.39;79.51;;
72160;Laerm;60045;51.792;10.938;2024-01-30T12:12:20;60.42;43.20;70.64;;
72160;Laerm;60045;51.792;10.938;2024-01-30T12:14:47;59.04;43.01;71.47;;
72160;Laerm;60045;51.792;10.938;2024-01-30T12:17:22;58.51;42.56;71.11;;
72160;Laerm;60045;51.792;10.938;2024-01-30T12:19:48;53.10;42.92;70.93;;
72160;Laerm;60045;51.792;10.938;2024-01-30T12:22:13;60.39;42.99;69.43;;
72160;Laerm;60045;51.792;10.938;2024-01-30T12:28:21;54.23;40.76;69.53;;
72160;Laerm;60045;51.792;10.938;2024-01-30T12:30:46;62.60;43.14;75.12;;
72160;Laerm;60045;51.792;10.938;2024-01-30T12:33:18;61.25;43.17;74.96;;
72160;Laerm;60045;51.792;10.938;2024-01-30T12:35:47;57.69;41.46;71.51;;
72160;Laerm;60045;51.792;10.938;2024-01-30T12:38:13;56.42;41.66;69.05;;
72160;Laerm;60045;51.792;10.938;2024-01-30T12:40:39;61.70;41.56;78.61;;
72160;Laerm;60045;51.792;10.938;2024-01-30T12:43:04;63.52;42.30;77.11;;
72160;Laerm;60045;51.792;10.938;2024-01-30T12:45:30;58.76;43.66;71.42;;
72160;Laerm;60045;51.792;10.938;2024-01-30T12:47:56;58.81;40.88;76.32;;
72160;Laerm;60045;51.792;10.938;2024-01-30T12:50:23;59.55;41.51;71.86;;
72160;Laerm;60045;51.792;10.938;2024-01-30T12:52:49;61.01;41.24;74.79;;
72160;Laerm;60045;51.792;10.938;2024-01-30T12:55:15;58.38;41.84;73.10;;
72160;Laerm;60045;51.792;10.938;2024-01-30T12:57:40;58.98;42.14;69.89;;
72160;Laerm;60045;51.792;10.938;2024-01-30T13:00:07;58.36;40.46;71.27;;
72160;Laerm;60045;51.792;10.938;2024-01-30T13:02:35;61.80;40.31;76.50;;
72160;Laerm;60045;51.792;10.938;2024-01-30T13:05:02;64.03;41.07;81.50;;
72160;Laerm;60045;51.792;10.938;2024-01-30T13:07:28;58.40;41.46;72.68;;
72160;Laerm;60045;51.792;10.938;2024-01-30T13:09:54;61.59;41.74;77.61;;
72160;Laerm;60045;51.792;10.938;2024-01-30T13:12:19;59.40;40.82;70.83;;
72160;Laerm;60045;51.792;10.938;2024-01-30T13:14:45;58.25;42.83;70.96;;
72160;Laerm;60045;51.792;10.938;2024-01-30T13:17:11;63.63;43.79;81.82;;
72160;Laerm;60045;51.792;10.938;2024-01-30T13:19:36;63.00;42.15;80.11;;
72160;Laerm;60045;51.792;10.938;2024-01-30T13:22:02;65.69;43.50;81.51;;
72160;Laerm;60045;51.792;10.938;2024-01-30T13:24:28;56.51;40.97;72.07;;
72160;Laerm;60045;51.792;10.938;2024-01-30T13:26:54;61.06;38.00;72.97;;
72160;Laerm;60045;51.792;10.938;2024-01-30T13:29:20;60.03;38.61;74.17;;